Terminal Aerodrome Forecast
Issued by NWS

Home | Current Version | Previous Version | Text Only | Print | Product List | Glossary On
Versions: 1 2 3 4 5 6 7 8 9 10 11 12 13 14 15 16 17 18 19 20 21 22 23 24 25 26
000
FTUS46 KSEW 271800 AAA
TAFCLM
TAF AMD
KCLM 271853Z 2719/2818 06007KT 6SM -RA BKN007 BKN018 OVC025
      TEMPO 2719/2721 2SM -RA BR SCT007 BKN018 OVC025
     FM272100 07007KT P6SM BKN015 OVC030
      TEMPO 2721/2724 -RA
     FM280000 08008KT P6SM BKN020 BKN050
     FM280300 07008KT P6SM BKN050=

USA.gov is the U.S. government's official web portal to all federal, state and local government web resources and services.